createdAt,value
2019-01-14T00:01:41.265Z,99.90
2019-01-14T00:04:12.210Z,99.90
2019-01-14T00:06:45.308Z,99.90
2019-01-14T00:09:23.072Z,99.90
2019-01-14T00:11:51.220Z,99.90
2019-01-14T00:14:25.497Z,99.90
2019-01-14T00:16:55.924Z,99.90
2019-01-14T00:19:28.570Z,99.90
2019-01-14T00:22:01.144Z,99.90
2019-01-14T00:24:36.765Z,99.90
2019-01-14T00:27:10.225Z,99.90
2019-01-14T00:29:43.398Z,99.90
2019-01-14T00:32:13.543Z,99.90
2019-01-14T00:34:47.584Z,99.90
2019-01-14T00:37:19.853Z,99.90
2019-01-14T00:39:51.996Z,99.90
2019-01-14T00:42:24.552Z,99.90
2019-01-14T00:44:55.869Z,99.90
2019-01-14T00:47:26.704Z,99.90
2019-01-14T00:49:57.682Z,99.90
2019-01-14T00:52:27.822Z,99.90
2019-01-14T00:55:17.819Z,99.90
2019-01-14T00:57:49.219Z,99.90
2019-01-14T01:00:22.370Z,99.90
2019-01-14T01:02:54.807Z,99.90
2019-01-14T01:05:29.216Z,99.90
2019-01-14T01:08:03.508Z,99.90
2019-01-14T01:10:37.269Z,99.90
2019-01-14T01:13:12.615Z,99.90
2019-01-14T01:15:43.616Z,99.90
2019-01-14T01:18:15.654Z,99.90
2019-01-14T01:20:49.022Z,99.90
2019-01-14T01:23:22.030Z,99.90
2019-01-14T01:25:52.456Z,99.90
2019-01-14T01:28:26.573Z,99.90
2019-01-14T01:30:59.869Z,99.90
2019-01-14T01:33:33.820Z,99.90
2019-01-14T01:36:04.147Z,99.90
2019-01-14T01:38:34.080Z,99.90
2019-01-14T01:41:04.008Z,99.90
2019-01-14T01:43:36.102Z,99.90
2019-01-14T01:46:07.366Z,99.90
2019-01-14T01:48:39.704Z,99.90
2019-01-14T01:51:11.158Z,99.90
2019-01-14T01:53:47.073Z,99.90
2019-01-14T01:56:18.401Z,99.90
2019-01-14T01:58:53.766Z,99.90
2019-01-14T02:01:27.898Z,99.90
2019-01-14T02:04:09.018Z,99.90
2019-01-14T02:06:39.450Z,99.90
2019-01-14T02:09:11.348Z,99.90
2019-01-14T02:11:41.502Z,99.90
2019-01-14T02:14:26.338Z,99.90
2019-01-14T02:20:21.910Z,99.90
2019-01-14T02:22:56.187Z,99.90
2019-01-14T02:25:26.518Z,99.90
2019-01-14T02:27:56.972Z,99.90
2019-01-14T02:30:28.555Z,99.90
2019-01-14T02:33:00.926Z,99.90
2019-01-14T02:35:30.974Z,99.90
2019-01-14T02:38:06.799Z,99.90
2019-01-14T02:40:45.469Z,99.90
2019-01-14T02:43:18.552Z,99.90
2019-01-14T02:45:49.571Z,99.90
2019-01-14T02:48:26.909Z,99.90
2019-01-14T02:50:56.936Z,99.90
2019-01-14T02:53:31.362Z,99.90
2019-01-14T02:56:03.684Z,99.90
2019-01-14T02:58:38.010Z,99.90
2019-01-14T03:01:12.856Z,99.90
2019-01-14T03:03:44.367Z,99.90
2019-01-14T03:06:16.957Z,99.90
2019-01-14T03:08:49.117Z,99.90
2019-01-14T03:11:21.292Z,99.90
2019-01-14T03:13:52.152Z,99.90
2019-01-14T03:16:24.682Z,99.90
2019-01-14T03:18:58.177Z,99.90
2019-01-14T03:21:30.269Z,99.90
2019-01-14T03:24:01.720Z,99.90
2019-01-14T03:26:37.855Z,99.90
2019-01-14T03:29:10.586Z,99.90
2019-01-14T03:31:41.010Z,99.90
2019-01-14T03:34:12.837Z,99.90
2019-01-14T03:36:43.257Z,99.90
2019-01-14T03:39:13.850Z,99.90
2019-01-14T03:41:43.994Z,99.90
2019-01-14T03:44:14.441Z,99.90
2019-01-14T03:46:44.930Z,99.90
2019-01-14T03:49:17.436Z,99.90
2019-01-14T03:51:48.249Z,99.90
2019-01-14T03:54:20.348Z,99.90
2019-01-14T03:56:54.115Z,99.90
2019-01-14T03:59:25.231Z,99.90
2019-01-14T04:01:55.556Z,99.90
2019-01-14T04:04:25.639Z,99.90
2019-01-14T04:06:56.156Z,99.90
2019-01-14T04:09:29.060Z,99.90
2019-01-14T04:12:00.716Z,99.90
2019-01-14T04:14:33.924Z,99.90
2019-01-14T04:17:06.911Z,99.90
2019-01-14T04:19:38.130Z,99.90
2019-01-14T04:22:08.124Z,99.90
2019-01-14T04:24:40.266Z,99.90
2019-01-14T04:27:10.417Z,99.90
2019-01-14T04:29:43.575Z,99.90
2019-01-14T04:32:17.426Z,99.90
2019-01-14T04:34:53.959Z,99.90
2019-01-14T04:37:24.247Z,99.90
2019-01-14T04:39:57.995Z,99.90
2019-01-14T04:42:30.141Z,99.90
2019-01-14T04:45:01.090Z,99.90
2019-01-14T04:47:31.327Z,99.90
2019-01-14T04:50:01.740Z,99.90
2019-01-14T04:52:31.831Z,99.90
2019-01-14T04:55:02.897Z,99.90
2019-01-14T04:57:32.981Z,99.90
2019-01-14T05:00:04.864Z,99.90
2019-01-14T05:02:34.752Z,99.90
2019-01-14T05:05:05.830Z,99.90
2019-01-14T05:07:35.881Z,99.90
2019-01-14T05:10:06.868Z,99.90
2019-01-14T05:12:38.407Z,99.90
2019-01-14T05:15:13.140Z,99.90
2019-01-14T05:17:45.096Z,99.90
2019-01-14T05:20:17.921Z,99.90
2019-01-14T05:22:47.915Z,99.90
2019-01-14T05:25:20.108Z,99.90
2019-01-14T05:27:51.285Z,99.90
2019-01-14T05:30:21.639Z,99.90
2019-01-14T05:32:52.063Z,99.90
2019-01-14T05:35:23.044Z,99.90
2019-01-14T05:37:53.733Z,99.90
2019-01-14T05:40:25.329Z,99.90
2019-01-14T05:42:59.297Z,99.90
2019-01-14T05:45:30.246Z,99.90
2019-01-14T05:48:00.437Z,99.90
2019-01-14T05:50:32.949Z,99.90
2019-01-14T05:53:05.756Z,99.90
2019-01-14T05:55:38.049Z,99.90
2019-01-14T05:58:08.713Z,99.90
2019-01-14T06:00:49.619Z,99.90
2019-01-14T06:03:19.738Z,99.90
2019-01-14T06:05:49.599Z,99.90
2019-01-14T06:08:20.401Z,99.90
2019-01-14T06:10:50.829Z,99.90
2019-01-14T06:13:20.809Z,99.90
2019-01-14T06:15:51.227Z,99.90
2019-01-14T06:18:22.238Z,99.90
2019-01-14T06:20:52.351Z,99.90
2019-01-14T06:23:23.563Z,99.90
2019-01-14T06:25:53.939Z,99.90
2019-01-14T06:28:24.297Z,99.90
2019-01-14T06:30:56.689Z,99.90
2019-01-14T06:33:26.781Z,99.90
2019-01-14T06:35:56.888Z,99.90
2019-01-14T06:38:30.364Z,99.90
2019-01-14T06:41:02.588Z,99.90
2019-01-14T06:43:32.760Z,99.90
2019-01-14T06:46:06.641Z,99.90
2019-01-14T06:48:38.231Z,99.90
2019-01-14T06:51:08.495Z,99.90
2019-01-14T06:53:38.582Z,99.90
2019-01-14T06:56:11.537Z,99.90
2019-01-14T06:58:42.579Z,99.90
2019-01-14T07:01:15.025Z,99.90
2019-01-14T07:03:46.355Z,99.90
2019-01-14T07:06:19.628Z,99.90
2019-01-14T07:08:49.701Z,99.90
2019-01-14T07:11:21.081Z,99.90
2019-01-14T07:13:52.038Z,99.90
2019-01-14T07:16:22.331Z,99.90
2019-01-14T07:18:52.393Z,99.90
2019-01-14T07:21:24.176Z,99.90
2019-01-14T07:23:54.332Z,99.90
2019-01-14T07:26:26.353Z,99.90
2019-01-14T07:29:02.141Z,99.90
2019-01-14T07:31:32.337Z,99.90
2019-01-14T07:34:03.548Z,99.90
2019-01-14T07:36:33.611Z,99.90
2019-01-14T07:39:05.108Z,99.90
2019-01-14T07:41:35.612Z,99.90
2019-01-14T07:44:07.291Z,99.90
2019-01-14T07:46:37.626Z,99.90
2019-01-14T07:49:07.912Z,99.90
2019-01-14T07:51:38.058Z,99.90
2019-01-14T07:54:08.313Z,99.90
2019-01-14T07:56:38.536Z,99.90
2019-01-14T07:59:08.571Z,99.90
2019-01-14T08:01:38.498Z,99.90
2019-01-14T08:04:08.467Z,99.90
2019-01-14T08:06:40.965Z,99.90
2019-01-14T08:09:11.447Z,99.90
2019-01-14T08:11:41.553Z,99.90
2019-01-14T08:14:11.682Z,99.90
2019-01-14T08:16:43.370Z,99.90
2019-01-14T08:19:17.892Z,99.90
2019-01-14T08:21:48.533Z,99.90
2019-01-14T08:24:19.977Z,99.90
2019-01-14T08:26:51.478Z,99.90
2019-01-14T08:29:22.612Z,99.90
2019-01-14T08:31:52.657Z,99.90
2019-01-14T08:34:24.208Z,99.90
2019-01-14T08:37:00.573Z,99.90
2019-01-14T08:39:25.580Z,99.90
2019-01-14T08:42:01.360Z,99.90
2019-01-14T08:44:48.009Z,99.90
2019-01-14T08:47:18.776Z,99.90
2019-01-14T08:49:49.711Z,99.90
2019-01-14T08:52:19.625Z,99.90
2019-01-14T08:54:50.227Z,99.90
2019-01-14T08:57:21.559Z,99.90
2019-01-14T08:59:53.252Z,99.90
2019-01-14T09:02:23.684Z,99.90
2019-01-14T09:04:55.947Z,99.90
2019-01-14T09:07:26.328Z,99.90
2019-01-14T09:09:56.602Z,99.90
2019-01-14T09:12:26.614Z,99.90
2019-01-14T09:14:56.817Z,99.90
2019-01-14T09:17:29.899Z,99.90
2019-01-14T09:20:03.087Z,99.90
2019-01-14T09:22:33.968Z,99.90
2019-01-14T09:25:04.292Z,99.90
2019-01-14T09:27:34.235Z,99.90
2019-01-14T09:30:10.837Z,99.90
2019-01-14T09:32:50.381Z,99.90
2019-01-14T09:35:20.737Z,99.90
2019-01-14T09:37:50.776Z,99.90
2019-01-14T09:40:25.606Z,99.90
2019-01-14T09:42:55.634Z,99.90
2019-01-14T09:45:25.888Z,99.90
2019-01-14T09:47:55.916Z,99.90
2019-01-14T09:50:27.017Z,99.90
2019-01-14T09:52:57.594Z,99.90
2019-01-14T09:55:28.963Z,99.90
2019-01-14T09:57:59.373Z,99.90
2019-01-14T10:00:29.286Z,99.90
2019-01-14T10:02:59.888Z,99.90
2019-01-14T10:05:32.141Z,99.90
2019-01-14T10:08:03.489Z,99.90
2019-01-14T10:10:37.441Z,99.90
2019-01-14T10:13:09.498Z,99.90
2019-01-14T10:15:39.640Z,99.90
2019-01-14T10:18:09.834Z,99.90
2019-01-14T10:20:39.644Z,99.90
2019-01-14T10:23:10.387Z,99.90
2019-01-14T10:25:40.270Z,99.90
2019-01-14T10:28:11.289Z,99.90
2019-01-14T10:30:45.490Z,99.90
2019-01-14T10:33:15.666Z,99.90
2019-01-14T10:35:46.035Z,99.90
2019-01-14T10:38:16.084Z,99.90
2019-01-14T10:40:47.202Z,99.90
2019-01-14T10:43:23.718Z,99.90
2019-01-14T10:45:55.707Z,99.90
2019-01-14T10:48:26.060Z,99.90
2019-01-14T10:50:56.048Z,99.90
2019-01-14T10:53:28.371Z,99.90
2019-01-14T10:55:59.487Z,99.90
2019-01-14T10:58:29.682Z,99.90
2019-01-14T11:01:01.368Z,99.90
2019-01-14T11:03:32.244Z,99.90
2019-01-14T11:06:03.833Z,99.90
2019-01-14T11:08:34.636Z,99.90
2019-01-14T11:11:04.931Z,99.90
2019-01-14T11:13:35.488Z,99.90
2019-01-14T11:16:05.979Z,99.90
2019-01-14T11:18:36.263Z,99.90
2019-01-14T11:21:08.214Z,99.90
2019-01-14T11:23:38.812Z,99.90
2019-01-14T11:26:12.616Z,99.90
2019-01-14T11:28:42.787Z,99.90
2019-01-14T11:31:14.588Z,99.90
2019-01-14T11:33:45.812Z,99.90
2019-01-14T11:36:15.490Z,99.70
2019-01-14T11:38:53.140Z,99.90
2019-01-14T11:41:24.254Z,99.90
2019-01-14T11:43:55.809Z,99.90
2019-01-14T11:46:26.855Z,99.90
2019-01-14T11:48:56.584Z,99.90
2019-01-14T11:51:27.403Z,99.90
2019-01-14T11:53:58.065Z,99.90
2019-01-14T11:56:27.763Z,99.90
2019-01-14T11:58:57.421Z,99.90
2019-01-14T12:01:27.737Z,99.90
2019-01-14T12:03:57.890Z,99.90
2019-01-14T12:06:28.207Z,99.90
2019-01-14T12:09:01.239Z,99.90
2019-01-14T12:11:31.280Z,99.90
2019-01-14T12:14:01.618Z,99.60
2019-01-14T12:16:31.490Z,99.00
2019-01-14T12:19:01.202Z,99.10
2019-01-14T12:21:30.939Z,99.50
2019-01-14T12:24:02.750Z,99.10
2019-01-14T12:26:32.844Z,99.20
2019-01-14T12:29:02.940Z,99.30
2019-01-14T12:31:32.721Z,98.80
2019-01-14T12:34:05.296Z,99.20
2019-01-14T12:36:35.669Z,99.40
2019-01-14T12:39:09.121Z,99.20
2019-01-14T12:41:39.732Z,99.70
2019-01-14T12:44:10.047Z,99.70
2019-01-14T12:46:42.134Z,99.90
2019-01-14T12:49:16.379Z,99.90
2019-01-14T12:51:46.082Z,99.90
2019-01-14T12:54:15.784Z,99.90
2019-01-14T12:56:49.150Z,99.90
2019-01-14T12:59:18.875Z,99.90
2019-01-14T13:01:48.948Z,99.90
2019-01-14T13:04:19.795Z,99.90
2019-01-14T13:06:49.500Z,99.90
2019-01-14T13:09:26.580Z,99.90
2019-01-14T13:11:51.212Z,99.90
2019-01-14T13:14:30.410Z,99.90
2019-01-14T13:17:01.167Z,99.90
2019-01-14T13:19:30.816Z,99.90
2019-01-14T13:22:01.694Z,99.90
2019-01-14T13:24:31.913Z,99.90
2019-01-14T13:27:02.235Z,99.90
2019-01-14T13:29:32.834Z,99.70
2019-01-14T13:32:03.077Z,99.90
2019-01-14T13:34:34.605Z,99.60
2019-01-14T13:37:05.259Z,99.40
2019-01-14T13:39:35.124Z,99.60
2019-01-14T13:42:04.935Z,99.70
2019-01-14T13:44:37.207Z,99.40
2019-01-14T13:47:08.639Z,99.00
2019-01-14T13:49:38.693Z,98.80
2019-01-14T13:52:08.713Z,98.20
2019-01-14T13:54:39.709Z,98.60
2019-01-14T13:57:09.842Z,98.90
2019-01-14T13:59:40.769Z,98.00
2019-01-14T14:02:12.087Z,98.50
2019-01-14T14:04:46.013Z,98.50
2019-01-14T14:07:16.244Z,98.70
2019-01-14T14:09:48.197Z,99.30
2019-01-14T14:12:17.993Z,99.50
2019-01-14T14:14:47.680Z,99.10
2019-01-14T14:17:18.128Z,99.40
2019-01-14T14:19:47.810Z,99.60
2019-01-14T14:22:18.091Z,99.40
2019-01-14T14:24:47.891Z,99.90
2019-01-14T14:27:19.124Z,99.00
2019-01-14T14:29:53.315Z,98.90
2019-01-14T14:32:23.137Z,98.10
2019-01-14T14:34:53.482Z,98.50
2019-01-14T14:37:24.942Z,97.90
2019-01-14T14:39:55.716Z,97.80
2019-01-14T14:42:37.665Z,98.00
2019-01-14T14:45:09.389Z,97.90
2019-01-14T14:47:39.480Z,99.00
2019-01-14T14:50:11.375Z,98.10
2019-01-14T14:52:41.186Z,97.70
2019-01-14T14:55:11.793Z,97.70
2019-01-14T14:57:43.045Z,97.50
2019-01-14T15:00:15.543Z,98.00
2019-01-14T15:02:45.620Z,98.20
2019-01-14T15:05:16.047Z,98.40
2019-01-14T15:07:46.126Z,97.90
2019-01-14T15:10:17.982Z,99.20
2019-01-14T15:12:54.756Z,99.10
2019-01-14T15:15:25.664Z,98.80
2019-01-14T15:18:06.317Z,99.10
2019-01-14T15:20:38.071Z,99.70
2019-01-14T15:23:07.748Z,99.90
2019-01-14T15:25:52.100Z,99.90
2019-01-14T15:28:28.053Z,99.90
2019-01-14T15:30:59.968Z,99.90
2019-01-14T15:36:26.889Z,99.90
2019-01-14T15:38:56.849Z,99.90
2019-01-14T15:41:26.981Z,99.90
2019-01-14T15:43:57.174Z,99.90
2019-01-14T15:46:27.060Z,99.90
2019-01-14T15:48:57.028Z,99.90
2019-01-14T15:51:29.923Z,99.90
2019-01-14T15:54:00.014Z,99.90
2019-01-14T15:56:31.922Z,99.90
2019-01-14T15:59:01.844Z,99.90
2019-01-14T16:01:33.557Z,99.90
2019-01-14T16:04:09.341Z,99.90
2019-01-14T16:06:43.339Z,99.90
2019-01-14T16:09:17.961Z,99.90
2019-01-14T16:11:50.790Z,99.90
2019-01-14T16:14:44.797Z,99.90
2019-01-14T16:17:15.127Z,99.90
2019-01-14T16:19:53.931Z,99.90
2019-01-14T16:23:02.165Z,99.90
2019-01-14T16:26:30.311Z,99.90
2019-01-14T16:29:06.677Z,99.90
2019-01-14T16:31:38.649Z,99.90
2019-01-14T16:34:16.535Z,99.90
2019-01-14T16:37:04.066Z,99.90
2019-01-14T16:39:37.447Z,99.90
2019-01-14T16:42:09.519Z,99.90
2019-01-14T16:44:45.532Z,99.90
2019-01-14T16:47:16.912Z,99.90
2019-01-14T16:49:47.086Z,99.90
2019-01-14T16:52:18.021Z,99.90
2019-01-14T16:54:48.486Z,99.90
2019-01-14T16:57:19.946Z,99.90
2019-01-14T17:00:33.050Z,99.90
2019-01-14T17:03:08.743Z,99.90
2019-01-14T17:05:40.573Z,99.90
2019-01-14T17:08:12.933Z,99.90
2019-01-14T17:10:42.619Z,99.90
2019-01-14T17:13:13.597Z,99.90
2019-01-14T17:15:43.652Z,99.90
2019-01-14T17:18:16.017Z,99.90
2019-01-14T17:20:48.264Z,99.90
2019-01-14T17:23:19.556Z,99.90
2019-01-14T17:26:01.953Z,99.90
2019-01-14T17:32:01.397Z,99.90
2019-01-14T17:34:31.225Z,99.90
2019-01-14T17:37:02.763Z,99.90
2019-01-14T17:39:33.656Z,99.90
2019-01-14T17:42:05.969Z,99.90
2019-01-14T17:44:36.581Z,99.90
2019-01-14T17:47:06.369Z,99.90
2019-01-14T17:49:36.206Z,99.90
2019-01-14T17:52:06.401Z,99.90
2019-01-14T17:54:37.568Z,99.90
2019-01-14T17:57:10.430Z,99.90
2019-01-14T17:59:41.892Z,99.90
2019-01-14T18:02:11.606Z,99.90
2019-01-14T18:04:43.347Z,99.90
2019-01-14T18:07:17.907Z,99.90
2019-01-14T18:09:49.729Z,99.90
2019-01-14T18:12:21.795Z,99.90
2019-01-14T18:15:01.817Z,99.90
2019-01-14T18:17:33.332Z,99.90
2019-01-14T18:20:07.106Z,99.90
2019-01-14T18:22:38.464Z,99.90
2019-01-14T18:25:13.393Z,99.90
2019-01-14T18:28:10.413Z,99.90
2019-01-14T18:30:42.128Z,99.90
2019-01-14T18:33:21.874Z,99.90
2019-01-14T18:35:53.581Z,99.90
2019-01-14T18:38:29.711Z,99.90
2019-01-14T18:41:20.759Z,99.90
2019-01-14T18:43:58.273Z,99.90
2019-01-14T18:46:31.254Z,99.90
2019-01-14T18:49:01.072Z,99.90
2019-01-14T18:51:32.889Z,99.90
2019-01-14T18:54:38.943Z,99.90
2019-01-14T18:57:10.140Z,99.90
2019-01-14T18:59:43.909Z,99.90
2019-01-14T19:02:15.832Z,99.90
2019-01-14T19:04:48.320Z,99.90
2019-01-14T19:07:29.434Z,99.90
2019-01-14T19:09:59.615Z,99.90
2019-01-14T19:12:29.721Z,99.90
2019-01-14T19:15:03.024Z,99.90
2019-01-14T19:17:55.919Z,99.90
2019-01-14T19:24:50.550Z,99.90
2019-01-14T19:27:22.919Z,99.90
2019-01-14T19:29:56.946Z,99.90
2019-01-14T19:32:38.377Z,99.90
2019-01-14T19:35:05.879Z,99.90
2019-01-14T19:37:35.801Z,99.90
2019-01-14T19:40:12.600Z,99.90
2019-01-14T19:42:44.418Z,99.90
2019-01-14T19:45:17.508Z,99.90
2019-01-14T19:47:50.992Z,99.90
2019-01-14T19:50:26.164Z,99.90
2019-01-14T19:52:58.599Z,99.90
2019-01-14T19:55:31.832Z,99.90
2019-01-14T19:58:02.571Z,99.90
2019-01-14T20:00:45.814Z,99.90
2019-01-14T20:03:25.264Z,99.90
2019-01-14T20:05:56.100Z,99.90
2019-01-14T20:08:32.328Z,99.90
2019-01-14T20:11:09.120Z,99.90
2019-01-14T20:13:44.438Z,99.90
2019-01-14T20:16:14.964Z,99.90
2019-01-14T20:18:45.190Z,99.90
2019-01-14T20:21:20.375Z,99.90
2019-01-14T20:23:55.258Z,99.90
2019-01-14T20:26:33.361Z,99.90
2019-01-14T20:29:09.865Z,99.90
2019-01-14T20:31:40.833Z,99.90
2019-01-14T20:34:12.737Z,99.90
2019-01-14T20:36:46.832Z,99.90
2019-01-14T20:39:17.059Z,99.90
2019-01-14T20:41:48.475Z,99.90
2019-01-14T20:44:20.710Z,99.90
2019-01-14T20:46:50.594Z,99.90
2019-01-14T20:49:30.992Z,99.90
2019-01-14T20:52:04.503Z,99.90
2019-01-14T20:54:39.679Z,99.90
2019-01-14T20:57:10.889Z,99.90
2019-01-14T20:59:44.994Z,99.90
2019-01-14T21:02:27.990Z,99.90
2019-01-14T21:05:00.349Z,99.90
2019-01-14T21:07:32.665Z,99.90
2019-01-14T21:10:04.408Z,99.90
2019-01-14T21:12:36.488Z,99.90
2019-01-14T21:15:24.409Z,99.90
2019-01-14T21:18:07.908Z,99.90
2019-01-14T21:20:41.895Z,99.90
2019-01-14T21:23:18.786Z,99.90
2019-01-14T21:25:47.459Z,99.90
2019-01-14T21:28:20.135Z,99.90
2019-01-14T21:30:53.327Z,99.90
2019-01-14T21:33:24.359Z,99.90
2019-01-14T21:35:54.831Z,99.90
2019-01-14T21:38:27.092Z,99.90
2019-01-14T21:41:06.603Z,99.90
2019-01-14T21:43:39.208Z,99.90
2019-01-14T21:46:12.974Z,99.90
2019-01-14T21:48:47.951Z,99.90
2019-01-14T21:51:21.032Z,99.90
2019-01-14T21:53:55.148Z,99.90
2019-01-14T21:56:27.918Z,99.90
2019-01-14T21:59:02.175Z,99.90
2019-01-14T22:01:40.368Z,99.90
2019-01-14T22:04:12.201Z,99.90
2019-01-14T22:06:45.218Z,99.90
2019-01-14T22:09:18.232Z,99.90
2019-01-14T22:11:52.401Z,99.90
2019-01-14T22:14:31.289Z,99.90
2019-01-14T22:17:06.424Z,99.90
2019-01-14T22:19:45.417Z,99.90
2019-01-14T22:22:19.243Z,99.90
2019-01-14T22:24:53.572Z,99.90
2019-01-14T22:27:29.702Z,99.90
2019-01-14T22:30:04.655Z,99.90
2019-01-14T22:32:39.451Z,99.90
2019-01-14T22:35:10.293Z,99.90
2019-01-14T22:37:47.407Z,99.90
2019-01-14T22:40:18.456Z,99.90
2019-01-14T22:42:51.172Z,99.90
2019-01-14T22:45:25.899Z,99.90
2019-01-14T22:48:04.761Z,99.90
2019-01-14T22:50:35.077Z,99.90
2019-01-14T22:53:05.064Z,99.90
2019-01-14T22:55:35.724Z,99.90
2019-01-14T22:58:07.948Z,99.90
2019-01-14T23:01:14.996Z,99.90
2019-01-14T23:03:47.867Z,99.90
2019-01-14T23:06:22.288Z,99.90
2019-01-14T23:08:52.333Z,99.90
2019-01-14T23:11:24.249Z,99.90
2019-01-14T23:13:59.065Z,99.90
2019-01-14T23:16:35.390Z,99.90
2019-01-14T23:19:20.044Z,99.90
2019-01-14T23:22:01.976Z,99.90
2019-01-14T23:24:40.127Z,99.90
2019-01-14T23:27:10.581Z,99.90
2019-01-14T23:29:42.484Z,99.90
2019-01-14T23:32:12.632Z,99.90
2019-01-14T23:34:50.855Z,99.90
2019-01-14T23:37:23.331Z,99.90
2019-01-14T23:39:53.776Z,99.90
2019-01-14T23:42:33.817Z,99.90
2019-01-14T23:45:13.381Z,99.90
2019-01-14T23:47:51.137Z,99.90
2019-01-14T23:50:29.459Z,99.90
2019-01-14T23:53:03.901Z,99.90
2019-01-14T23:55:36.646Z,99.90
2019-01-14T23:58:07.559Z,99.90
